sensor_id;sensor_type;location;lat;lon;timestamp;temperature;humidity
28823;DHT22;15961;54.678;9.110;2022-12-29T00:01:15;8.00;99.90
28823;DHT22;15961;54.678;9.110;2022-12-29T00:03:40;7.90;99.90
28823;DHT22;15961;54.678;9.110;2022-12-29T00:06:06;8.00;99.90
28823;DHT22;15961;54.678;9.110;2022-12-29T00:08:31;7.90;99.90
28823;DHT22;15961;54.678;9.110;2022-12-29T00:11:27;8.00;99.90
28823;DHT22;15961;54.678;9.110;2022-12-29T00:13:53;8.00;99.90
28823;DHT22;15961;54.678;9.110;2022-12-29T00:16:40;8.00;99.90
28823;DHT22;15961;54.678;9.110;2022-12-29T00:19:06;8.00;99.90
28823;DHT22;15961;54.678;9.110;2022-12-29T00:21:31;8.00;99.90
28823;DHT22;15961;54.678;9.110;2022-12-29T00:24:18;7.90;99.90
28823;DHT22;15961;54.678;9.110;2022-12-29T00:27:10;8.00;99.90
28823;DHT22;15961;54.678;9.110;2022-12-29T00:29:55;7.90;99.90
28823;DHT22;15961;54.678;9.110;2022-12-29T00:32:39;7.90;99.90
28823;DHT22;15961;54.678;9.110;2022-12-29T00:35:30;8.00;99.90
28823;DHT22;15961;54.678;9.110;2022-12-29T00:38:04;8.00;99.90
28823;DHT22;15961;54.678;9.110;2022-12-29T00:40:49;7.90;99.90
28823;DHT22;15961;54.678;9.110;2022-12-29T00:43:33;8.00;99.90
28823;DHT22;15961;54.678;9.110;2022-12-29T00:46:18;8.00;99.90
28823;DHT22;15961;54.678;9.110;2022-12-29T00:48:43;8.00;99.90
28823;DHT22;15961;54.678;9.110;2022-12-29T00:51:27;8.00;99.90
28823;DHT22;15961;54.678;9.110;2022-12-29T00:53:53;8.10;99.90
28823;DHT22;15961;54.678;9.110;2022-12-29T00:56:19;8.10;99.90
28823;DHT22;15961;54.678;9.110;2022-12-29T00:58:44;8.20;99.90
28823;DHT22;15961;54.678;9.110;2022-12-29T01:01:10;8.20;99.90
28823;DHT22;15961;54.678;9.110;2022-12-29T01:03:36;8.20;99.90
28823;DHT22;15961;54.678;9.110;2022-12-29T01:06:04;8.20;99.90
28823;DHT22;15961;54.678;9.110;2022-12-29T01:08:30;8.30;99.90
28823;DHT22;15961;54.678;9.110;2022-12-29T01:13:28;8.30;99.90
28823;DHT22;15961;54.678;9.110;2022-12-29T01:15:54;8.40;99.90
28823;DHT22;15961;54.678;9.110;2022-12-29T01:18:21;8.40;99.90
28823;DHT22;15961;54.678;9.110;2022-12-29T01:20:46;8.50;99.90
28823;DHT22;15961;54.678;9.110;2022-12-29T01:23:12;8.50;99.90
28823;DHT22;15961;54.678;9.110;2022-12-29T01:25:37;8.50;99.90
28823;DHT22;15961;54.678;9.110;2022-12-29T01:28:03;8.50;99.90
28823;DHT22;15961;54.678;9.110;2022-12-29T01:30:29;8.50;99.90
28823;DHT22;15961;54.678;9.110;2022-12-29T01:32:54;8.50;99.90
28823;DHT22;15961;54.678;9.110;2022-12-29T01:35:20;8.50;99.90
28823;DHT22;15961;54.678;9.110;2022-12-29T01:37:45;8.60;99.90
28823;DHT22;15961;54.678;9.110;2022-12-29T01:40:11;8.50;99.90
28823;DHT22;15961;54.678;9.110;2022-12-29T01:42:37;8.50;99.90
28823;DHT22;15961;54.678;9.110;2022-12-29T01:45:10;8.60;99.90
28823;DHT22;15961;54.678;9.110;2022-12-29T01:47:44;8.60;99.90
28823;DHT22;15961;54.678;9.110;2022-12-29T01:53:11;8.70;99.90
28823;DHT22;15961;54.678;9.110;2022-12-29T01:55:46;8.70;99.90
28823;DHT22;15961;54.678;9.110;2022-12-29T01:58:15;8.70;99.90
28823;DHT22;15961;54.678;9.110;2022-12-29T02:00:41;8.70;99.90
28823;DHT22;15961;54.678;9.110;2022-12-29T02:03:08;8.80;99.90
28823;DHT22;15961;54.678;9.110;2022-12-29T02:06:07;8.80;99.90
28823;DHT22;15961;54.678;9.110;2022-12-29T02:08:34;8.70;99.90
28823;DHT22;15961;54.678;9.110;2022-12-29T02:11:00;8.70;99.90
28823;DHT22;15961;54.678;9.110;2022-12-29T02:13:27;8.70;99.90
28823;DHT22;15961;54.678;9.110;2022-12-29T02:16:35;8.80;99.90
28823;DHT22;15961;54.678;9.110;2022-12-29T02:22:33;8.70;99.90
28823;DHT22;15961;54.678;9.110;2022-12-29T02:25:14;8.80;99.90
28823;DHT22;15961;54.678;9.110;2022-12-29T02:36:24;8.80;99.90
28823;DHT22;15961;54.678;9.110;2022-12-29T02:39:11;8.80;99.90
28823;DHT22;15961;54.678;9.110;2022-12-29T02:44:34;8.90;99.90
28823;DHT22;15961;54.678;9.110;2022-12-29T02:47:39;8.90;99.90
28823;DHT22;15961;54.678;9.110;2022-12-29T02:50:19;8.90;99.90
28823;DHT22;15961;54.678;9.110;2022-12-29T02:52:51;8.90;99.90
28823;DHT22;15961;54.678;9.110;2022-12-29T02:55:18;9.00;99.90
28823;DHT22;15961;54.678;9.110;2022-12-29T02:57:44;9.10;99.90
28823;DHT22;15961;54.678;9.110;2022-12-29T03:00:14;9.10;99.90
28823;DHT22;15961;54.678;9.110;2022-12-29T03:13:38;9.20;99.90
28823;DHT22;15961;54.678;9.110;2022-12-29T03:16:28;9.20;99.90
28823;DHT22;15961;54.678;9.110;2022-12-29T03:18:58;9.30;99.90
28823;DHT22;15961;54.678;9.110;2022-12-29T03:24:16;9.20;99.90
28823;DHT22;15961;54.678;9.110;2022-12-29T03:26:43;9.20;99.90
28823;DHT22;15961;54.678;9.110;2022-12-29T03:29:12;9.20;99.90
28823;DHT22;15961;54.678;9.110;2022-12-29T03:31:39;9.20;99.90
28823;DHT22;15961;54.678;9.110;2022-12-29T03:34:06;9.20;99.90
28823;DHT22;15961;54.678;9.110;2022-12-29T03:36:44;9.30;99.90
28823;DHT22;15961;54.678;9.110;2022-12-29T03:39:12;9.20;99.90
28823;DHT22;15961;54.678;9.110;2022-12-29T03:41:41;9.20;99.90
28823;DHT22;15961;54.678;9.110;2022-12-29T03:44:08;9.30;99.90
28823;DHT22;15961;54.678;9.110;2022-12-29T03:46:34;9.30;99.90
28823;DHT22;15961;54.678;9.110;2022-12-29T03:48:59;9.30;99.90
28823;DHT22;15961;54.678;9.110;2022-12-29T03:51:25;9.30;99.90
28823;DHT22;15961;54.678;9.110;2022-12-29T03:53:50;9.30;99.90
28823;DHT22;15961;54.678;9.110;2022-12-29T03:56:16;9.30;99.90
28823;DHT22;15961;54.678;9.110;2022-12-29T03:58:41;9.30;99.90
28823;DHT22;15961;54.678;9.110;2022-12-29T04:01:07;9.30;99.90
28823;DHT22;15961;54.678;9.110;2022-12-29T04:03:33;9.30;99.90
28823;DHT22;15961;54.678;9.110;2022-12-29T04:05:58;9.30;99.90
28823;DHT22;15961;54.678;9.110;2022-12-29T04:08:24;9.40;99.90
28823;DHT22;15961;54.678;9.110;2022-12-29T04:10:49;9.30;99.90
28823;DHT22;15961;54.678;9.110;2022-12-29T04:13:15;9.30;99.90
28823;DHT22;15961;54.678;9.110;2022-12-29T04:15:43;9.30;99.90
28823;DHT22;15961;54.678;9.110;2022-12-29T04:18:08;9.30;99.90
28823;DHT22;15961;54.678;9.110;2022-12-29T04:20:34;9.40;99.90
28823;DHT22;15961;54.678;9.110;2022-12-29T04:23:34;9.40;99.90
28823;DHT22;15961;54.678;9.110;2022-12-29T04:26:00;9.40;99.90
28823;DHT22;15961;54.678;9.110;2022-12-29T04:28:26;9.40;99.90
28823;DHT22;15961;54.678;9.110;2022-12-29T04:30:52;9.40;99.90
28823;DHT22;15961;54.678;9.110;2022-12-29T04:33:18;9.40;99.90
28823;DHT22;15961;54.678;9.110;2022-12-29T04:35:44;9.50;99.90
28823;DHT22;15961;54.678;9.110;2022-12-29T04:38:10;9.50;99.90
28823;DHT22;15961;54.678;9.110;2022-12-29T04:40:38;9.40;99.90
28823;DHT22;15961;54.678;9.110;2022-12-29T04:43:05;9.50;99.90
28823;DHT22;15961;54.678;9.110;2022-12-29T04:45:30;9.40;99.90
28823;DHT22;15961;54.678;9.110;2022-12-29T04:47:56;9.50;99.90
28823;DHT22;15961;54.678;9.110;2022-12-29T04:50:21;9.40;99.90
28823;DHT22;15961;54.678;9.110;2022-12-29T04:52:47;9.40;99.90
28823;DHT22;15961;54.678;9.110;2022-12-29T04:55:13;9.40;99.90
28823;DHT22;15961;54.678;9.110;2022-12-29T04:57:38;9.40;99.90
28823;DHT22;15961;54.678;9.110;2022-12-29T05:00:05;9.40;99.90
28823;DHT22;15961;54.678;9.110;2022-12-29T05:02:30;9.40;99.90
28823;DHT22;15961;54.678;9.110;2022-12-29T05:04:56;9.40;99.90
28823;DHT22;15961;54.678;9.110;2022-12-29T05:07:22;9.30;99.90
28823;DHT22;15961;54.678;9.110;2022-12-29T05:09:47;9.30;99.90
28823;DHT22;15961;54.678;9.110;2022-12-29T05:12:13;9.30;99.90
28823;DHT22;15961;54.678;9.110;2022-12-29T05:14:38;9.30;99.90
28823;DHT22;15961;54.678;9.110;2022-12-29T05:17:04;9.30;99.90
28823;DHT22;15961;54.678;9.110;2022-12-29T05:19:29;9.10;99.90
28823;DHT22;15961;54.678;9.110;2022-12-29T05:21:55;9.10;99.90
28823;DHT22;15961;54.678;9.110;2022-12-29T05:24:21;9.00;99.90
28823;DHT22;15961;54.678;9.110;2022-12-29T05:26:47;8.90;99.90
28823;DHT22;15961;54.678;9.110;2022-12-29T05:29:12;8.80;99.90
28823;DHT22;15961;54.678;9.110;2022-12-29T05:31:38;8.70;99.90
28823;DHT22;15961;54.678;9.110;2022-12-29T05:34:03;8.60;99.90
28823;DHT22;15961;54.678;9.110;2022-12-29T05:36:29;8.50;99.90
28823;DHT22;15961;54.678;9.110;2022-12-29T05:38:55;8.40;99.90
28823;DHT22;15961;54.678;9.110;2022-12-29T05:41:21;8.40;99.90
28823;DHT22;15961;54.678;9.110;2022-12-29T05:43:46;8.40;99.90
28823;DHT22;15961;54.678;9.110;2022-12-29T05:46:12;8.40;99.90
28823;DHT22;15961;54.678;9.110;2022-12-29T05:48:37;8.40;99.90
28823;DHT22;15961;54.678;9.110;2022-12-29T05:51:03;8.40;99.90
28823;DHT22;15961;54.678;9.110;2022-12-29T05:53:29;8.40;99.90
28823;DHT22;15961;54.678;9.110;2022-12-29T05:55:54;8.40;99.90
28823;DHT22;15961;54.678;9.110;2022-12-29T05:58:20;8.30;99.90
28823;DHT22;15961;54.678;9.110;2022-12-29T06:00:45;8.30;99.90
28823;DHT22;15961;54.678;9.110;2022-12-29T06:03:11;8.40;99.90
28823;DHT22;15961;54.678;9.110;2022-12-29T06:05:37;8.30;99.90
28823;DHT22;15961;54.678;9.110;2022-12-29T06:08:02;8.30;99.90
28823;DHT22;15961;54.678;9.110;2022-12-29T06:10:28;8.30;99.90
28823;DHT22;15961;54.678;9.110;2022-12-29T06:12:53;8.30;99.90
28823;DHT22;15961;54.678;9.110;2022-12-29T06:15:19;8.30;99.90
28823;DHT22;15961;54.678;9.110;2022-12-29T06:17:44;8.30;99.90
28823;DHT22;15961;54.678;9.110;2022-12-29T06:20:10;8.30;99.90
28823;DHT22;15961;54.678;9.110;2022-12-29T06:22:36;8.20;99.90
28823;DHT22;15961;54.678;9.110;2022-12-29T06:25:02;8.20;99.90
28823;DHT22;15961;54.678;9.110;2022-12-29T06:27:28;8.20;99.90
28823;DHT22;15961;54.678;9.110;2022-12-29T06:29:54;8.20;99.90
28823;DHT22;15961;54.678;9.110;2022-12-29T06:32:20;8.20;99.90
28823;DHT22;15961;54.678;9.110;2022-12-29T06:34:46;8.20;99.90
28823;DHT22;15961;54.678;9.110;2022-12-29T06:37:12;8.10;99.90
28823;DHT22;15961;54.678;9.110;2022-12-29T06:39:40;8.10;99.90
28823;DHT22;15961;54.678;9.110;2022-12-29T06:42:05;8.10;99.90
28823;DHT22;15961;54.678;9.110;2022-12-29T06:44:31;8.10;99.90
28823;DHT22;15961;54.678;9.110;2022-12-29T06:46:56;8.10;99.90
28823;DHT22;15961;54.678;9.110;2022-12-29T06:49:23;8.10;99.90
28823;DHT22;15961;54.678;9.110;2022-12-29T06:51:48;8.20;99.90
28823;DHT22;15961;54.678;9.110;2022-12-29T06:54:14;8.20;99.90
28823;DHT22;15961;54.678;9.110;2022-12-29T06:56:39;8.20;99.90
28823;DHT22;15961;54.678;9.110;2022-12-29T06:59:05;8.30;99.90
28823;DHT22;15961;54.678;9.110;2022-12-29T07:01:30;8.30;99.90
28823;DHT22;15961;54.678;9.110;2022-12-29T07:03:56;8.40;99.90
28823;DHT22;15961;54.678;9.110;2022-12-29T07:06:22;8.40;99.90
28823;DHT22;15961;54.678;9.110;2022-12-29T07:08:48;8.40;99.90
28823;DHT22;15961;54.678;9.110;2022-12-29T07:11:13;8.50;99.90
28823;DHT22;15961;54.678;9.110;2022-12-29T07:13:39;8.40;99.90
28823;DHT22;15961;54.678;9.110;2022-12-29T07:16:07;8.40;99.90
28823;DHT22;15961;54.678;9.110;2022-12-29T07:18:32;8.40;99.90
28823;DHT22;15961;54.678;9.110;2022-12-29T07:20:58;8.50;99.90
28823;DHT22;15961;54.678;9.110;2022-12-29T07:23:23;8.50;99.90
28823;DHT22;15961;54.678;9.110;2022-12-29T07:25:49;8.50;99.90
28823;DHT22;15961;54.678;9.110;2022-12-29T07:28:15;8.50;99.90
28823;DHT22;15961;54.678;9.110;2022-12-29T07:30:40;8.50;99.90
28823;DHT22;15961;54.678;9.110;2022-12-29T07:33:06;8.50;99.90
28823;DHT22;15961;54.678;9.110;2022-12-29T07:35:33;8.40;99.90
28823;DHT22;15961;54.678;9.110;2022-12-29T07:37:59;8.40;99.90
28823;DHT22;15961;54.678;9.110;2022-12-29T07:40:25;8.40;99.90
28823;DHT22;15961;54.678;9.110;2022-12-29T07:42:50;8.40;99.90
28823;DHT22;15961;54.678;9.110;2022-12-29T07:45:16;8.50;99.90
28823;DHT22;15961;54.678;9.110;2022-12-29T07:47:41;8.50;99.90
28823;DHT22;15961;54.678;9.110;2022-12-29T07:50:07;8.50;99.90
28823;DHT22;15961;54.678;9.110;2022-12-29T07:52:32;8.50;99.90
28823;DHT22;15961;54.678;9.110;2022-12-29T07:54:58;8.50;99.90
28823;DHT22;15961;54.678;9.110;2022-12-29T07:57:23;8.60;99.90
28823;DHT22;15961;54.678;9.110;2022-12-29T07:59:49;8.60;99.90
28823;DHT22;15961;54.678;9.110;2022-12-29T08:02:15;8.60;99.90
28823;DHT22;15961;54.678;9.110;2022-12-29T08:04:40;8.50;99.90
28823;DHT22;15961;54.678;9.110;2022-12-29T08:07:06;8.40;99.90
28823;DHT22;15961;54.678;9.110;2022-12-29T08:09:31;8.50;99.90
28823;DHT22;15961;54.678;9.110;2022-12-29T08:11:57;8.40;99.90
28823;DHT22;15961;54.678;9.110;2022-12-29T08:14:22;8.50;99.90
28823;DHT22;15961;54.678;9.110;2022-12-29T08:16:48;8.50;99.90
28823;DHT22;15961;54.678;9.110;2022-12-29T08:19:13;8.60;99.90
28823;DHT22;15961;54.678;9.110;2022-12-29T08:21:39;8.60;99.90
28823;DHT22;15961;54.678;9.110;2022-12-29T08:24:05;8.60;99.90
28823;DHT22;15961;54.678;9.110;2022-12-29T08:26:31;8.50;99.90
28823;DHT22;15961;54.678;9.110;2022-12-29T08:28:57;8.50;99.90
28823;DHT22;15961;54.678;9.110;2022-12-29T08:31:23;8.50;99.90
28823;DHT22;15961;54.678;9.110;2022-12-29T08:33:49;8.60;99.90
28823;DHT22;15961;54.678;9.110;2022-12-29T08:36:15;8.50;99.90
28823;DHT22;15961;54.678;9.110;2022-12-29T08:38:41;8.60;99.90
28823;DHT22;15961;54.678;9.110;2022-12-29T08:41:06;8.70;99.90
28823;DHT22;15961;54.678;9.110;2022-12-29T08:43:32;8.70;99.90
28823;DHT22;15961;54.678;9.110;2022-12-29T08:46:00;8.70;99.90
28823;DHT22;15961;54.678;9.110;2022-12-29T08:48:26;8.70;99.90
28823;DHT22;15961;54.678;9.110;2022-12-29T08:50:52;8.60;99.90
28823;DHT22;15961;54.678;9.110;2022-12-29T08:53:18;8.50;99.90
28823;DHT22;15961;54.678;9.110;2022-12-29T08:55:47;8.50;99.90
28823;DHT22;15961;54.678;9.110;2022-12-29T08:58:19;8.50;99.90
28823;DHT22;15961;54.678;9.110;2022-12-29T09:00:45;8.50;99.90
28823;DHT22;15961;54.678;9.110;2022-12-29T09:03:10;8.50;99.90
28823;DHT22;15961;54.678;9.110;2022-12-29T09:05:36;8.50;99.90
28823;DHT22;15961;54.678;9.110;2022-12-29T09:08:01;8.50;99.90
28823;DHT22;15961;54.678;9.110;2022-12-29T09:10:27;8.50;99.90
28823;DHT22;15961;54.678;9.110;2022-12-29T09:12:52;8.50;99.90
28823;DHT22;15961;54.678;9.110;2022-12-29T09:15:18;8.40;99.90
28823;DHT22;15961;54.678;9.110;2022-12-29T09:17:43;8.50;99.90
28823;DHT22;15961;54.678;9.110;2022-12-29T09:20:14;8.40;99.90
28823;DHT22;15961;54.678;9.110;2022-12-29T09:22:40;8.50;99.90
28823;DHT22;15961;54.678;9.110;2022-12-29T09:25:06;8.50;99.90
28823;DHT22;15961;54.678;9.110;2022-12-29T09:27:31;8.50;99.90
28823;DHT22;15961;54.678;9.110;2022-12-29T09:29:57;8.50;99.90
28823;DHT22;15961;54.678;9.110;2022-12-29T09:32:22;8.60;99.90
28823;DHT22;15961;54.678;9.110;2022-12-29T09:34:48;8.60;99.90
28823;DHT22;15961;54.678;9.110;2022-12-29T09:37:14;8.70;99.90
28823;DHT22;15961;54.678;9.110;2022-12-29T09:39:39;8.70;99.90
28823;DHT22;15961;54.678;9.110;2022-12-29T09:47:41;8.70;99.90
28823;DHT22;15961;54.678;9.110;2022-12-29T09:50:20;8.80;99.90
28823;DHT22;15961;54.678;9.110;2022-12-29T09:55:48;8.80;99.90
28823;DHT22;15961;54.678;9.110;2022-12-29T09:58:21;8.90;99.90
28823;DHT22;15961;54.678;9.110;2022-12-29T10:04:01;9.10;99.90
28823;DHT22;15961;54.678;9.110;2022-12-29T10:06:47;9.10;99.90
28823;DHT22;15961;54.678;9.110;2022-12-29T10:15:05;9.10;99.90
28823;DHT22;15961;54.678;9.110;2022-12-29T10:17:42;9.00;99.90
28823;DHT22;15961;54.678;9.110;2022-12-29T10:20:33;9.00;99.90
28823;DHT22;15961;54.678;9.110;2022-12-29T10:25:45;9.00;99.90
28823;DHT22;15961;54.678;9.110;2022-12-29T10:30:53;9.00;99.90
28823;DHT22;15961;54.678;9.110;2022-12-29T10:33:32;9.00;99.90
28823;DHT22;15961;54.678;9.110;2022-12-29T10:36:13;9.00;99.90
28823;DHT22;15961;54.678;9.110;2022-12-29T10:39:45;8.90;99.90
28823;DHT22;15961;54.678;9.110;2022-12-29T10:41:51;8.80;99.90
28823;DHT22;15961;54.678;9.110;2022-12-29T10:44:19;8.70;99.90
28823;DHT22;15961;54.678;9.110;2022-12-29T10:46:55;8.60;99.90
28823;DHT22;15961;54.678;9.110;2022-12-29T10:49:25;8.60;99.90
28823;DHT22;15961;54.678;9.110;2022-12-29T10:51:54;8.50;99.90
28823;DHT22;15961;54.678;9.110;2022-12-29T10:54:38;8.50;99.90
28823;DHT22;15961;54.678;9.110;2022-12-29T10:57:11;8.40;99.90
28823;DHT22;15961;54.678;9.110;2022-12-29T10:59:38;8.40;99.90
28823;DHT22;15961;54.678;9.110;2022-12-29T11:04:40;8.30;99.90
28823;DHT22;15961;54.678;9.110;2022-12-29T11:07:08;8.30;99.90
28823;DHT22;15961;54.678;9.110;2022-12-29T11:09:36;8.20;99.90
28823;DHT22;15961;54.678;9.110;2022-12-29T11:17:50;8.20;99.90
28823;DHT22;15961;54.678;9.110;2022-12-29T11:20:37;8.20;99.90
28823;DHT22;15961;54.678;9.110;2022-12-29T11:23:05;8.20;99.90
28823;DHT22;15961;54.678;9.110;2022-12-29T11:25:45;8.10;99.90
28823;DHT22;15961;54.678;9.110;2022-12-29T11:28:15;8.20;99.90
28823;DHT22;15961;54.678;9.110;2022-12-29T11:30:42;8.10;99.90
28823;DHT22;15961;54.678;9.110;2022-12-29T11:33:09;8.10;99.90
28823;DHT22;15961;54.678;9.110;2022-12-29T11:35:44;8.10;99.90
28823;DHT22;15961;54.678;9.110;2022-12-29T11:38:21;8.10;99.90
28823;DHT22;15961;54.678;9.110;2022-12-29T11:40:48;8.20;99.90
28823;DHT22;15961;54.678;9.110;2022-12-29T11:43:23;8.20;99.90
28823;DHT22;15961;54.678;9.110;2022-12-29T11:45:52;8.30;99.90
28823;DHT22;15961;54.678;9.110;2022-12-29T11:48:20;8.30;99.90
28823;DHT22;15961;54.678;9.110;2022-12-29T11:50:57;8.40;99.90
28823;DHT22;15961;54.678;9.110;2022-12-29T11:54:04;8.40;99.90
28823;DHT22;15961;54.678;9.110;2022-12-29T11:56:41;8.50;99.90
28823;DHT22;15961;54.678;9.110;2022-12-29T11:59:37;8.50;99.90
28823;DHT22;15961;54.678;9.110;2022-12-29T12:05:03;8.50;99.90
28823;DHT22;15961;54.678;9.110;2022-12-29T12:07:41;8.50;99.90
28823;DHT22;15961;54.678;9.110;2022-12-29T12:10:15;8.50;99.90
28823;DHT22;15961;54.678;9.110;2022-12-29T12:12:48;8.50;99.90
28823;DHT22;15961;54.678;9.110;2022-12-29T12:15:24;8.50;99.90
28823;DHT22;15961;54.678;9.110;2022-12-29T12:18:00;8.40;99.90
28823;DHT22;15961;54.678;9.110;2022-12-29T12:20:50;8.40;99.90
28823;DHT22;15961;54.678;9.110;2022-12-29T12:23:26;8.30;99.90
28823;DHT22;15961;54.678;9.110;2022-12-29T12:26:02;8.30;99.90
28823;DHT22;15961;54.678;9.110;2022-12-29T12:28:54;8.20;99.90
28823;DHT22;15961;54.678;9.110;2022-12-29T12:34:30;8.20;99.90
28823;DHT22;15961;54.678;9.110;2022-12-29T12:40:28;8.10;99.90
28823;DHT22;15961;54.678;9.110;2022-12-29T12:49:00;8.00;99.90
28823;DHT22;15961;54.678;9.110;2022-12-29T13:00:02;7.90;99.90
28823;DHT22;15961;54.678;9.110;2022-12-29T13:02:37;7.80;99.90
28823;DHT22;15961;54.678;9.110;2022-12-29T13:13:46;7.70;99.90
28823;DHT22;15961;54.678;9.110;2022-12-29T13:16:27;7.60;99.90
28823;DHT22;15961;54.678;9.110;2022-12-29T13:19:02;7.60;99.90
28823;DHT22;15961;54.678;9.110;2022-12-29T13:22:00;7.60;99.90
28823;DHT22;15961;54.678;9.110;2022-12-29T13:24:35;7.50;99.90
28823;DHT22;15961;54.678;9.110;2022-12-29T13:29:59;7.50;99.90
28823;DHT22;15961;54.678;9.110;2022-12-29T13:32:38;7.50;99.90
28823;DHT22;15961;54.678;9.110;2022-12-29T13:38:26;7.50;99.90
28823;DHT22;15961;54.678;9.110;2022-12-29T13:41:13;7.40;99.90
28823;DHT22;15961;54.678;9.110;2022-12-29T13:43:41;7.40;99.90
28823;DHT22;15961;54.678;9.110;2022-12-29T13:46:18;7.50;99.90
28823;DHT22;15961;54.678;9.110;2022-12-29T13:51:55;7.60;99.90
28823;DHT22;15961;54.678;9.110;2022-12-29T13:54:48;7.60;99.90
28823;DHT22;15961;54.678;9.110;2022-12-29T13:57:40;7.70;99.90
28823;DHT22;15961;54.678;9.110;2022-12-29T14:00:16;7.70;99.90
28823;DHT22;15961;54.678;9.110;2022-12-29T14:03:07;7.80;99.90
28823;DHT22;15961;54.678;9.110;2022-12-29T14:05:37;7.80;99.90
28823;DHT22;15961;54.678;9.110;2022-12-29T14:08:05;7.80;99.90
28823;DHT22;15961;54.678;9.110;2022-12-29T14:10:48;7.80;99.90
28823;DHT22;15961;54.678;9.110;2022-12-29T14:13:20;7.70;99.90
28823;DHT22;15961;54.678;9.110;2022-12-29T14:15:58;7.70;99.90
28823;DHT22;15961;54.678;9.110;2022-12-29T14:18:30;7.60;99.90
28823;DHT22;15961;54.678;9.110;2022-12-29T14:21:03;7.60;99.90
28823;DHT22;15961;54.678;9.110;2022-12-29T14:28:35;7.50;99.90
28823;DHT22;15961;54.678;9.110;2022-12-29T14:31:32;7.50;99.90
28823;DHT22;15961;54.678;9.110;2022-12-29T14:36:53;7.40;99.90
28823;DHT22;15961;54.678;9.110;2022-12-29T14:44:52;7.20;99.90
28823;DHT22;15961;54.678;9.110;2022-12-29T14:47:32;7.20;99.90
28823;DHT22;15961;54.678;9.110;2022-12-29T14:50:05;7.10;99.90
28823;DHT22;15961;54.678;9.110;2022-12-29T14:52:32;7.10;99.90
28823;DHT22;15961;54.678;9.110;2022-12-29T14:57:33;7.00;99.90
28823;DHT22;15961;54.678;9.110;2022-12-29T15:00:22;7.00;99.90
28823;DHT22;15961;54.678;9.110;2022-12-29T15:02:54;7.10;99.90
28823;DHT22;15961;54.678;9.110;2022-12-29T15:06:06;7.10;99.90
28823;DHT22;15961;54.678;9.110;2022-12-29T15:11:24;7.10;99.90
28823;DHT22;15961;54.678;9.110;2022-12-29T15:13:50;7.10;99.90
28823;DHT22;15961;54.678;9.110;2022-12-29T15:16:25;7.10;99.90
28823;DHT22;15961;54.678;9.110;2022-12-29T15:18:52;7.20;99.90
28823;DHT22;15961;54.678;9.110;2022-12-29T15:21:23;7.10;99.90
28823;DHT22;15961;54.678;9.110;2022-12-29T15:23:49;7.10;99.90
28823;DHT22;15961;54.678;9.110;2022-12-29T15:26:15;7.10;99.90
28823;DHT22;15961;54.678;9.110;2022-12-29T15:28:46;7.10;99.90
28823;DHT22;15961;54.678;9.110;2022-12-29T15:31:19;7.10;99.90
28823;DHT22;15961;54.678;9.110;2022-12-29T15:33:48;7.10;99.90
28823;DHT22;15961;54.678;9.110;2022-12-29T15:36:22;7.10;99.90
28823;DHT22;15961;54.678;9.110;2022-12-29T15:38:48;7.10;99.90
28823;DHT22;15961;54.678;9.110;2022-12-29T15:44:24;7.10;99.90
28823;DHT22;15961;54.678;9.110;2022-12-29T15:46:51;7.10;99.90
28823;DHT22;15961;54.678;9.110;2022-12-29T15:49:17;7.10;99.90
28823;DHT22;15961;54.678;9.110;2022-12-29T15:54:19;7.10;99.90
28823;DHT22;15961;54.678;9.110;2022-12-29T15:56:46;7.10;99.90
28823;DHT22;15961;54.678;9.110;2022-12-29T15:59:28;7.10;99.90
28823;DHT22;15961;54.678;9.110;2022-12-29T16:01:55;7.10;99.90
28823;DHT22;15961;54.678;9.110;2022-12-29T16:04:22;7.10;99.90
28823;DHT22;15961;54.678;9.110;2022-12-29T16:06:58;7.10;99.90
28823;DHT22;15961;54.678;9.110;2022-12-29T16:09:42;7.10;99.90
28823;DHT22;15961;54.678;9.110;2022-12-29T16:12:16;7.10;99.90
28823;DHT22;15961;54.678;9.110;2022-12-29T16:14:46;7.10;99.90
28823;DHT22;15961;54.678;9.110;2022-12-29T16:17:15;7.10;99.90
28823;DHT22;15961;54.678;9.110;2022-12-29T16:19:43;7.10;99.90
28823;DHT22;15961;54.678;9.110;2022-12-29T16:22:21;7.20;99.90
28823;DHT22;15961;54.678;9.110;2022-12-29T16:24:48;7.10;99.90
28823;DHT22;15961;54.678;9.110;2022-12-29T16:27:22;7.10;99.90
28823;DHT22;15961;54.678;9.110;2022-12-29T16:29:53;7.10;99.90
28823;DHT22;15961;54.678;9.110;2022-12-29T16:32:30;7.10;99.90
28823;DHT22;15961;54.678;9.110;2022-12-29T16:35:29;7.10;99.90
28823;DHT22;15961;54.678;9.110;2022-12-29T16:38:20;7.10;99.90
28823;DHT22;15961;54.678;9.110;2022-12-29T16:40:51;7.10;99.90
28823;DHT22;15961;54.678;9.110;2022-12-29T16:43:28;7.10;99.90
28823;DHT22;15961;54.678;9.110;2022-12-29T16:48:46;7.10;99.90
28823;DHT22;15961;54.678;9.110;2022-12-29T16:51:16;7.10;99.90
28823;DHT22;15961;54.678;9.110;2022-12-29T16:53:48;7.00;99.90
28823;DHT22;15961;54.678;9.110;2022-12-29T16:56:17;7.00;99.90
28823;DHT22;15961;54.678;9.110;2022-12-29T16:58:55;7.00;99.90
28823;DHT22;15961;54.678;9.110;2022-12-29T17:01:23;7.10;99.90
28823;DHT22;15961;54.678;9.110;2022-12-29T17:03:54;7.00;99.90
28823;DHT22;15961;54.678;9.110;2022-12-29T17:06:22;7.00;99.90
28823;DHT22;15961;54.678;9.110;2022-12-29T17:08:48;7.10;99.90
28823;DHT22;15961;54.678;9.110;2022-12-29T17:16:55;7.10;99.90
28823;DHT22;15961;54.678;9.110;2022-12-29T17:19:28;7.10;99.90
28823;DHT22;15961;54.678;9.110;2022-12-29T17:21:54;7.20;99.90
28823;DHT22;15961;54.678;9.110;2022-12-29T17:24:19;7.20;99.90
28823;DHT22;15961;54.678;9.110;2022-12-29T17:26:51;7.20;99.90
28823;DHT22;15961;54.678;9.110;2022-12-29T17:31:54;7.20;99.90
28823;DHT22;15961;54.678;9.110;2022-12-29T17:34:20;7.20;99.90
28823;DHT22;15961;54.678;9.110;2022-12-29T17:36:46;7.10;99.90
28823;DHT22;15961;54.678;9.110;2022-12-29T17:39:11;7.10;99.90
28823;DHT22;15961;54.678;9.110;2022-12-29T17:41:37;7.10;99.90
28823;DHT22;15961;54.678;9.110;2022-12-29T17:44:04;7.10;99.90
28823;DHT22;15961;54.678;9.110;2022-12-29T17:46:30;7.10;99.90
28823;DHT22;15961;54.678;9.110;2022-12-29T17:48:55;7.10;99.90
28823;DHT22;15961;54.678;9.110;2022-12-29T17:51:21;7.10;99.90
28823;DHT22;15961;54.678;9.110;2022-12-29T17:53:47;7.10;99.90
28823;DHT22;15961;54.678;9.110;2022-12-29T17:56:14;7.20;99.90
28823;DHT22;15961;54.678;9.110;2022-12-29T17:58:40;7.20;99.90
28823;DHT22;15961;54.678;9.110;2022-12-29T18:01:06;7.20;99.90
28823;DHT22;15961;54.678;9.110;2022-12-29T18:03:39;7.20;99.90
28823;DHT22;15961;54.678;9.110;2022-12-29T18:06:06;7.20;99.90
28823;DHT22;15961;54.678;9.110;2022-12-29T18:08:36;7.30;99.90
28823;DHT22;15961;54.678;9.110;2022-12-29T18:11:03;7.30;99.90
28823;DHT22;15961;54.678;9.110;2022-12-29T18:13:31;7.30;99.90
28823;DHT22;15961;54.678;9.110;2022-12-29T18:15:58;7.40;99.90
28823;DHT22;15961;54.678;9.110;2022-12-29T18:18:25;7.40;99.90
28823;DHT22;15961;54.678;9.110;2022-12-29T18:20:53;7.40;99.90
28823;DHT22;15961;54.678;9.110;2022-12-29T18:23:30;7.40;99.90
28823;DHT22;15961;54.678;9.110;2022-12-29T18:26:03;7.40;99.90
28823;DHT22;15961;54.678;9.110;2022-12-29T18:28:29;7.40;99.90